Aberdeen, WA

9:34 PM PST on December 19, 2014 (GMT -0800)
Central Park 2 | Change Station
CLOSE
Current Station
Personal Weather Station
Location: Aberdeen, WA
Elevation: 33 ft
Nearby Weather Stations
Active Advisory: Areal Flood Watch Active Notice: Record Report

Elev 33 ft 46.97 °N, 123.72 °W | Updated 7 minutes ago

Overcast
Overcast
44.6 °F
Feels Like 45 °F
N
1.1
Wind Variable Wind from ESE

Today
High -- | Low -- °F
--% Chance of Precip.
Yesterday
High -- | Low -- °F
Precip. -- in
7:57 AM 4:27 PM
Waning Crescent, 4% visible
Pressure 29.85 in
Visibility 8.0 miles
Clouds Few 9500 ft
Mostly Cloudy 11000 ft
Windchill 45 °F
Dew Point 43 °F
Humidity 93%
Rainfall 0.36 in
Snow Depth Not available.
UV 0 out of 12
Pollen .50 out of 12
Air Quality Not available.
Flu Activity Not available.
METAR KHQM 200453Z AUTO 06009KT 8SM FEW095 BKN110 08/06 A2984 RMK AO2 SLP108 T00780061

More Conditions Fewer Conditions

Pressure 29.85 in
Visibility 8.0 miles
Clouds Few 9500 ft
Mostly Cloudy 11000 ft
Windchill 45 °F
Dew Point 43 °F
Humidity 93%
Rainfall 0.36 in
Snow Depth Not available.
UV 0 out of 12
Pollen .50 out of 12
Air Quality Not available.
Flu Activity Not available.
METAR KHQM 200453Z AUTO 06009KT 8SM FEW095 BKN110 08/06 A2984 RMK AO2 SLP108 T00780061

More Conditions Fewer Conditions

10-Day Weather Forecast

Almanac

Astronomy

Dec. 19, 2014 Rise Set
Actual Time
Civil Twilight
Nautical Twilight
Astronomical Twilight
Moon
Length of Visible Light
Length of Day
Tomorrow will be .
, % of the Moon is Illuminated

Today's Extremes

State Highs State Lows

Community

WunderPhotos

Upload Photos

1,779,141 photos uploaded!

WunderBlogs® & News

Nearby

Air Quality

  Air Quality AQ Index Pollutant
Not available.

Snow Depth

Station Depth Elevation

Earthquake Activity

City Distance Mag. Time & Date
Minimum magnitude displayed is 2.5.

Coastal Water Temperatures

Place Temperature

Nearby Weather Stations